createdAt,value
2022-10-07T00:01:55.694Z,52.52
2022-10-07T00:04:24.579Z,52.40
2022-10-07T00:06:53.130Z,52.65
2022-10-07T00:09:21.564Z,52.77
2022-10-07T00:11:50.301Z,53.47
2022-10-07T00:14:20.178Z,53.79
2022-10-07T00:16:48.975Z,53.97
2022-10-07T00:19:17.824Z,54.30
2022-10-07T00:21:47.474Z,54.21
2022-10-07T00:24:16.267Z,53.91
2022-10-07T00:26:45.212Z,53.61
2022-10-07T00:29:13.649Z,53.44
2022-10-07T00:31:44.941Z,53.41
2022-10-07T00:34:14.161Z,53.41
2022-10-07T00:36:44.986Z,53.22
2022-10-07T00:39:15.817Z,53.20
2022-10-07T00:41:48.295Z,53.54
2022-10-07T00:44:36.941Z,53.47
2022-10-07T00:47:13.733Z,54.20
2022-10-07T00:49:46.398Z,53.92
2022-10-07T00:52:17.690Z,53.69
2022-10-07T00:54:46.861Z,53.63
2022-10-07T00:57:15.766Z,53.95
2022-10-07T00:59:44.342Z,53.61
2022-10-07T01:02:15.396Z,53.63
2022-10-07T01:04:46.243Z,53.87
2022-10-07T01:07:20.354Z,53.73
2022-10-07T01:09:51.387Z,53.90
2022-10-07T01:12:30.014Z,54.00
2022-10-07T01:15:05.770Z,54.00
2022-10-07T01:17:47.052Z,53.93
2022-10-07T01:20:31.732Z,53.85
2022-10-07T01:23:21.365Z,54.35
2022-10-07T01:26:13.192Z,54.52
2022-10-07T01:28:47.829Z,54.29
2022-10-07T01:31:22.532Z,53.68
2022-10-07T01:33:54.246Z,53.48
2022-10-07T01:36:26.401Z,53.81
2022-10-07T01:39:02.449Z,54.34
2022-10-07T01:41:32.747Z,54.08
2022-10-07T01:44:03.107Z,53.65
2022-10-07T01:46:33.382Z,53.85
2022-10-07T01:49:02.610Z,53.94
2022-10-07T01:51:35.553Z,54.19
2022-10-07T01:54:15.441Z,54.25
2022-10-07T01:56:57.244Z,54.28
2022-10-07T01:59:48.334Z,54.13
2022-10-07T02:02:27.877Z,54.36
2022-10-07T02:05:11.403Z,54.28
2022-10-07T02:07:56.623Z,54.44
2022-10-07T02:10:29.146Z,54.49
2022-10-07T02:13:05.576Z,54.27
2022-10-07T02:15:43.958Z,54.16
2022-10-07T02:18:16.627Z,55.00
2022-10-07T02:20:49.518Z,54.25
2022-10-07T02:23:20.813Z,54.20
2022-10-07T02:25:51.687Z,53.95
2022-10-07T02:28:23.709Z,54.23
2022-10-07T02:30:58.566Z,54.12
2022-10-07T02:33:30.246Z,54.12
2022-10-07T02:36:03.335Z,54.20
2022-10-07T02:38:32.167Z,54.36
2022-10-07T02:41:10.815Z,54.03
2022-10-07T02:43:47.627Z,54.50
2022-10-07T02:46:22.635Z,54.43
2022-10-07T02:48:58.872Z,54.87
2022-10-07T02:51:33.758Z,54.62
2022-10-07T02:54:04.919Z,54.55
2022-10-07T02:56:37.838Z,54.46
2022-10-07T02:59:11.301Z,54.58
2022-10-07T03:01:46.750Z,54.57
2022-10-07T03:04:15.975Z,54.70
2022-10-07T03:06:45.981Z,54.47
2022-10-07T03:09:14.610Z,54.23
2022-10-07T03:11:43.243Z,54.18
2022-10-07T03:14:12.456Z,54.43
2022-10-07T03:16:42.376Z,54.40
2022-10-07T03:19:11.080Z,54.31
2022-10-07T03:21:41.287Z,54.33
2022-10-07T03:24:09.971Z,54.45
2022-10-07T03:26:38.975Z,54.21
2022-10-07T03:29:08.484Z,54.13
2022-10-07T03:31:37.921Z,54.01
2022-10-07T03:34:08.627Z,54.54
2022-10-07T03:36:37.353Z,54.26
2022-10-07T03:39:06.419Z,54.99
2022-10-07T03:41:34.697Z,55.35
2022-10-07T03:44:04.617Z,55.43
2022-10-07T03:46:33.094Z,55.65
2022-10-07T03:49:01.910Z,55.11
2022-10-07T03:51:31.945Z,54.97
2022-10-07T03:54:01.540Z,55.23
2022-10-07T03:56:30.939Z,54.91
2022-10-07T03:58:59.834Z,55.77
2022-10-07T04:01:31.738Z,55.92
2022-10-07T04:04:01.537Z,55.34
2022-10-07T04:06:32.175Z,55.38
2022-10-07T04:09:03.505Z,55.17
2022-10-07T04:11:32.451Z,55.41
2022-10-07T04:14:01.502Z,55.50
2022-10-07T04:16:31.951Z,54.95
2022-10-07T04:19:03.703Z,55.50
2022-10-07T04:21:34.020Z,55.52
2022-10-07T04:24:02.982Z,55.97
2022-10-07T04:26:31.298Z,56.03
2022-10-07T04:29:00.222Z,55.52
2022-10-07T04:31:29.328Z,55.61
2022-10-07T04:33:57.899Z,55.75
2022-10-07T04:36:27.292Z,55.54
2022-10-07T04:38:58.354Z,55.84
2022-10-07T04:41:27.132Z,55.61
2022-10-07T04:43:58.013Z,55.59
2022-10-07T04:46:28.473Z,55.55
2022-10-07T04:48:58.134Z,55.81
2022-10-07T04:51:26.807Z,56.03
2022-10-07T04:53:58.680Z,57.26
2022-10-07T04:56:31.405Z,57.02
2022-10-07T04:59:03.700Z,56.45
2022-10-07T05:01:32.439Z,56.63
2022-10-07T05:04:01.010Z,56.63
2022-10-07T05:06:29.455Z,56.71
2022-10-07T05:08:59.436Z,56.26
2022-10-07T05:11:27.919Z,56.56
2022-10-07T05:13:57.281Z,56.49
2022-10-07T05:16:26.398Z,56.33
2022-10-07T05:18:54.896Z,56.16
2022-10-07T05:21:24.638Z,56.41
2022-10-07T05:23:53.608Z,56.57
2022-10-07T05:26:24.051Z,56.29
2022-10-07T05:28:54.936Z,56.15
2022-10-07T05:31:23.602Z,56.25
2022-10-07T05:33:53.442Z,56.20
2022-10-07T05:36:21.869Z,56.48
2022-10-07T05:38:50.519Z,56.03
2022-10-07T05:41:19.669Z,55.32
2022-10-07T05:43:49.334Z,56.27
2022-10-07T05:46:20.417Z,57.02
2022-10-07T05:48:51.163Z,56.92
2022-10-07T05:51:20.060Z,56.78
2022-10-07T05:53:49.184Z,56.69
2022-10-07T05:56:21.474Z,56.07
2022-10-07T05:58:54.468Z,56.94
2022-10-07T06:01:24.547Z,57.01
2022-10-07T06:03:56.821Z,56.48
2022-10-07T06:06:26.293Z,56.49
2022-10-07T06:09:15.190Z,57.08
2022-10-07T06:12:01.984Z,56.94
2022-10-07T06:14:33.046Z,56.86
2022-10-07T06:17:01.790Z,56.68
2022-10-07T06:19:30.775Z,56.36
2022-10-07T06:21:59.739Z,56.16
2022-10-07T06:24:28.515Z,56.46
2022-10-07T06:26:58.855Z,56.29
2022-10-07T06:29:28.673Z,56.40
2022-10-07T06:31:59.622Z,56.36
2022-10-07T06:34:28.506Z,56.69
2022-10-07T06:36:57.295Z,56.54
2022-10-07T06:39:26.546Z,56.50
2022-10-07T06:41:57.235Z,56.23
2022-10-07T06:44:26.259Z,56.46
2022-10-07T06:46:54.631Z,56.74
2022-10-07T06:49:24.532Z,56.68
2022-10-07T06:51:53.251Z,56.51
2022-10-07T06:54:21.925Z,56.64
2022-10-07T06:56:50.347Z,56.60
2022-10-07T06:59:19.708Z,56.66
2022-10-07T07:01:48.345Z,56.36
2022-10-07T07:04:16.921Z,56.53
2022-10-07T07:06:47.419Z,56.46
2022-10-07T07:09:16.008Z,56.40
2022-10-07T07:11:45.559Z,56.34
2022-10-07T07:14:15.030Z,56.30
2022-10-07T07:16:44.512Z,56.15
2022-10-07T07:19:14.572Z,56.26
2022-10-07T07:21:46.489Z,55.90
2022-10-07T07:24:18.186Z,55.91
2022-10-07T07:26:48.428Z,55.80
2022-10-07T07:29:17.623Z,55.63
2022-10-07T07:31:46.202Z,55.50
2022-10-07T07:34:15.608Z,55.54
2022-10-07T07:36:46.077Z,55.44
2022-10-07T07:39:18.757Z,55.31
2022-10-07T07:41:47.971Z,55.29
2022-10-07T07:44:19.173Z,55.11
2022-10-07T07:46:51.453Z,55.02
2022-10-07T07:49:22.392Z,54.86
2022-10-07T07:51:51.228Z,54.88
2022-10-07T07:54:21.718Z,54.74
2022-10-07T07:56:50.354Z,54.77
2022-10-07T07:59:19.203Z,54.65
2022-10-07T08:01:48.607Z,54.52
2022-10-07T08:04:18.018Z,54.37
2022-10-07T08:06:46.713Z,54.16
2022-10-07T08:09:15.223Z,54.21
2022-10-07T08:11:45.833Z,54.12
2022-10-07T08:14:15.792Z,53.95
2022-10-07T08:16:45.103Z,53.96
2022-10-07T08:19:13.670Z,54.01
2022-10-07T08:21:42.542Z,53.87
2022-10-07T08:24:14.519Z,53.74
2022-10-07T08:26:42.993Z,53.50
2022-10-07T08:29:15.269Z,53.20
2022-10-07T08:31:44.059Z,52.91
2022-10-07T08:34:12.770Z,52.66
2022-10-07T08:36:46.991Z,52.34
2022-10-07T08:39:16.204Z,52.26
2022-10-07T08:41:55.708Z,52.21
2022-10-07T08:44:32.091Z,51.72
2022-10-07T08:47:07.521Z,51.40
2022-10-07T08:49:45.126Z,51.71
2022-10-07T08:52:30.075Z,51.49
2022-10-07T08:55:00.449Z,50.27
2022-10-07T08:57:43.837Z,51.30
2022-10-07T09:00:17.873Z,49.94
2022-10-07T09:03:05.583Z,50.79
2022-10-07T09:05:39.083Z,50.04
2022-10-07T09:08:14.407Z,50.84
2022-10-07T09:10:48.733Z,50.49
2022-10-07T09:13:22.035Z,50.58
2022-10-07T09:16:00.376Z,50.48
2022-10-07T09:18:35.070Z,49.73
2022-10-07T09:21:07.035Z,50.17
2022-10-07T09:23:36.954Z,49.72
2022-10-07T09:26:10.599Z,49.05
2022-10-07T09:28:39.213Z,49.66
2022-10-07T09:31:12.388Z,49.98
2022-10-07T09:33:43.917Z,49.63
2022-10-07T09:36:17.150Z,49.66
2022-10-07T09:38:47.429Z,49.70
2022-10-07T09:41:19.817Z,48.82
2022-10-07T09:44:02.929Z,49.19
2022-10-07T09:46:47.679Z,47.80
2022-10-07T09:49:32.741Z,46.72
2022-10-07T09:52:03.690Z,47.21
2022-10-07T09:54:33.396Z,48.82
2022-10-07T09:57:04.229Z,48.03
2022-10-07T09:59:33.862Z,48.29
2022-10-07T10:02:19.164Z,48.19
2022-10-07T10:04:51.100Z,47.90
2022-10-07T10:07:21.826Z,47.49
2022-10-07T10:09:51.755Z,48.02
2022-10-07T10:12:21.962Z,47.93
2022-10-07T10:14:53.414Z,46.65
2022-10-07T10:17:31.215Z,47.17
2022-10-07T10:20:26.619Z,44.77
2022-10-07T10:22:55.459Z,45.23
2022-10-07T10:25:51.549Z,47.05
2022-10-07T10:28:29.741Z,46.54
2022-10-07T10:31:08.417Z,46.84
2022-10-07T10:33:47.079Z,45.59
2022-10-07T10:36:20.553Z,43.54
2022-10-07T10:38:53.652Z,46.21
2022-10-07T10:41:32.924Z,45.59
2022-10-07T10:44:33.539Z,44.97
2022-10-07T10:47:07.195Z,43.71
2022-10-07T10:49:42.983Z,45.59
2022-10-07T10:52:30.298Z,43.63
2022-10-07T10:55:22.089Z,43.96
2022-10-07T10:58:02.577Z,44.08
2022-10-07T11:00:42.013Z,43.26
2022-10-07T11:03:35.260Z,43.31
2022-10-07T11:06:08.863Z,42.97
2022-10-07T11:08:38.910Z,45.14
2022-10-07T11:11:11.850Z,45.60
2022-10-07T11:13:46.830Z,45.39
2022-10-07T11:16:19.905Z,44.73
2022-10-07T11:18:52.895Z,45.11
2022-10-07T11:21:27.083Z,45.31
2022-10-07T11:24:02.446Z,44.40
2022-10-07T11:26:37.491Z,45.00
2022-10-07T11:29:19.168Z,45.11
2022-10-07T11:31:55.003Z,43.26
2022-10-07T11:34:31.164Z,43.78
2022-10-07T11:37:07.144Z,44.84
2022-10-07T11:39:38.807Z,43.66
2022-10-07T11:42:14.406Z,42.78
2022-10-07T11:44:53.175Z,43.54
2022-10-07T11:47:27.368Z,42.76
2022-10-07T11:50:02.858Z,43.13
2022-10-07T11:52:43.424Z,42.08
2022-10-07T11:55:20.147Z,41.73
2022-10-07T11:57:54.178Z,43.39
2022-10-07T12:00:28.137Z,42.47
2022-10-07T12:02:57.267Z,41.91
2022-10-07T12:05:56.049Z,42.18
2022-10-07T12:08:32.452Z,38.20
2022-10-07T12:11:44.241Z,39.27
2022-10-07T12:14:36.454Z,38.38
2022-10-07T12:17:23.882Z,39.40
2022-10-07T12:20:30.128Z,38.66
2022-10-07T12:23:40.672Z,38.52
2022-10-07T12:26:51.310Z,38.58
2022-10-07T12:29:36.265Z,39.33
2022-10-07T12:32:05.148Z,38.46
2022-10-07T12:34:39.910Z,42.25
2022-10-07T12:37:50.400Z,40.08
2022-10-07T12:40:25.923Z,38.27
2022-10-07T12:43:11.480Z,39.22
2022-10-07T12:45:43.489Z,40.23
2022-10-07T12:48:21.402Z,41.57
2022-10-07T12:50:53.109Z,39.60
2022-10-07T12:53:26.353Z,40.68
2022-10-07T12:55:57.539Z,40.32
2022-10-07T12:59:06.309Z,41.05
2022-10-07T13:01:57.919Z,38.29
2022-10-07T13:04:57.455Z,38.18
2022-10-07T13:07:54.381Z,37.76
2022-10-07T13:10:48.166Z,38.46
2022-10-07T13:13:23.406Z,38.54
2022-10-07T13:15:57.913Z,40.28
2022-10-07T13:18:37.347Z,40.67
2022-10-07T13:21:13.613Z,40.15
2022-10-07T13:23:41.825Z,40.47
2022-10-07T13:26:14.786Z,41.50
2022-10-07T13:28:50.025Z,40.90
2022-10-07T13:31:21.981Z,39.43
2022-10-07T13:33:51.301Z,40.41
2022-10-07T13:36:23.062Z,41.49
2022-10-07T13:38:54.884Z,40.94
2022-10-07T13:41:27.230Z,40.95
2022-10-07T13:44:00.667Z,41.32
2022-10-07T13:46:31.206Z,40.94
2022-10-07T13:49:00.219Z,41.33
2022-10-07T13:51:33.010Z,41.00
2022-10-07T13:54:03.454Z,41.30
2022-10-07T13:56:35.996Z,41.71
2022-10-07T13:59:07.335Z,41.04
2022-10-07T14:01:38.836Z,41.13
2022-10-07T14:04:19.954Z,41.03
2022-10-07T14:06:52.456Z,39.58
2022-10-07T14:09:24.751Z,41.33
2022-10-07T14:11:57.641Z,41.57
2022-10-07T14:14:32.461Z,41.11
2022-10-07T14:17:01.270Z,41.28
2022-10-07T14:19:33.805Z,41.85
2022-10-07T14:22:04.435Z,41.50
2022-10-07T14:24:33.069Z,41.48
2022-10-07T14:27:01.574Z,41.75
2022-10-07T14:29:38.701Z,41.76
2022-10-07T14:32:30.412Z,39.27
2022-10-07T14:35:22.908Z,40.41
2022-10-07T14:37:51.391Z,40.92
2022-10-07T14:40:22.624Z,41.46
2022-10-07T14:42:53.479Z,40.87
2022-10-07T14:45:23.823Z,41.60
2022-10-07T14:47:52.445Z,41.60
2022-10-07T14:50:20.772Z,41.48
2022-10-07T14:52:52.120Z,41.63
2022-10-07T14:55:23.166Z,41.28
2022-10-07T14:57:52.787Z,41.68
2022-10-07T15:00:25.675Z,41.90
2022-10-07T15:02:54.733Z,41.73
2022-10-07T15:05:23.636Z,41.75
2022-10-07T15:07:51.900Z,41.71
2022-10-07T15:10:23.260Z,41.72
2022-10-07T15:12:51.741Z,41.61
2022-10-07T15:15:20.679Z,41.79
2022-10-07T15:17:50.560Z,41.96
2022-10-07T15:20:19.694Z,42.01
2022-10-07T15:22:48.329Z,42.11
2022-10-07T15:25:18.106Z,42.11
2022-10-07T15:27:46.557Z,42.21
2022-10-07T15:30:15.033Z,42.25
2022-10-07T15:32:44.141Z,42.25
2022-10-07T15:35:14.055Z,42.35
2022-10-07T15:37:45.848Z,42.40
2022-10-07T15:40:14.769Z,42.56
2022-10-07T15:42:44.427Z,42.60
2022-10-07T15:45:13.359Z,42.65
2022-10-07T15:47:41.982Z,42.78
2022-10-07T15:50:10.908Z,42.81
2022-10-07T15:52:40.561Z,42.82
2022-10-07T15:55:09.722Z,42.88
2022-10-07T15:57:37.868Z,42.96
2022-10-07T16:00:06.638Z,42.90
2022-10-07T16:02:40.104Z,42.91
2022-10-07T16:05:09.757Z,43.04
2022-10-07T16:07:38.034Z,43.06
2022-10-07T16:10:12.822Z,43.11
2022-10-07T16:12:41.827Z,43.17
2022-10-07T16:15:10.712Z,43.31
2022-10-07T16:17:38.890Z,43.40
2022-10-07T16:20:11.403Z,43.49
2022-10-07T16:22:39.856Z,43.53
2022-10-07T16:25:10.133Z,43.57
2022-10-07T16:27:52.478Z,43.67
2022-10-07T16:30:38.367Z,43.70
2022-10-07T16:33:06.495Z,44.06
2022-10-07T16:35:34.980Z,44.15
2022-10-07T16:38:04.236Z,44.35
2022-10-07T16:40:33.746Z,44.58
2022-10-07T16:43:02.124Z,44.69
2022-10-07T16:45:30.315Z,44.85
2022-10-07T16:47:58.745Z,44.94
2022-10-07T16:50:27.231Z,45.32
2022-10-07T16:52:55.764Z,45.36
2022-10-07T16:55:23.949Z,45.52
2022-10-07T16:57:54.170Z,45.74
2022-10-07T17:00:23.073Z,45.64
2022-10-07T17:02:51.304Z,45.59
2022-10-07T17:05:19.833Z,45.74
2022-10-07T17:07:49.054Z,45.83
2022-10-07T17:10:17.430Z,46.00
2022-10-07T17:12:46.140Z,46.00
2022-10-07T17:15:16.142Z,46.25
2022-10-07T17:17:44.717Z,46.42
2022-10-07T17:20:13.502Z,46.70
2022-10-07T17:22:43.292Z,46.79
2022-10-07T17:25:11.570Z,47.11
2022-10-07T17:27:39.997Z,47.17
2022-10-07T17:30:09.511Z,46.87
2022-10-07T17:32:38.971Z,47.07
2022-10-07T17:35:08.996Z,47.00
2022-10-07T17:37:37.325Z,47.22
2022-10-07T17:40:06.173Z,47.27
2022-10-07T17:42:34.738Z,47.28
2022-10-07T17:45:04.629Z,47.34
2022-10-07T17:47:33.658Z,47.22
2022-10-07T17:50:03.547Z,47.14
2022-10-07T17:52:32.700Z,47.17
2022-10-07T17:55:00.981Z,47.39
2022-10-07T17:57:29.715Z,47.28
2022-10-07T17:59:57.951Z,47.29
2022-10-07T18:02:26.182Z,47.26
2022-10-07T18:04:54.765Z,47.35
2022-10-07T18:07:24.380Z,47.32
2022-10-07T18:09:52.619Z,47.31
2022-10-07T18:12:38.399Z,47.26
2022-10-07T18:15:22.282Z,47.36
2022-10-07T18:17:52.848Z,47.46
2022-10-07T18:20:22.836Z,47.64
2022-10-07T18:22:57.030Z,47.50
2022-10-07T18:25:25.813Z,47.89
2022-10-07T18:27:54.391Z,47.54
2022-10-07T18:30:23.084Z,47.59
2022-10-07T18:32:51.262Z,47.59
2022-10-07T18:35:19.963Z,47.66
2022-10-07T18:37:49.575Z,47.75
2022-10-07T18:40:19.133Z,47.72
2022-10-07T18:42:47.709Z,47.70
2022-10-07T18:45:16.147Z,47.74
2022-10-07T18:47:44.659Z,47.75
2022-10-07T18:50:13.326Z,47.77
2022-10-07T18:52:41.554Z,47.93
2022-10-07T18:55:10.312Z,47.95
2022-10-07T18:57:40.271Z,47.87
2022-10-07T19:00:09.793Z,47.97
2022-10-07T19:02:38.371Z,48.01
2022-10-07T19:05:07.328Z,48.36
2022-10-07T19:07:35.573Z,48.36
2022-10-07T19:10:03.831Z,48.48
2022-10-07T19:12:49.761Z,48.29
2022-10-07T19:15:19.598Z,48.31
2022-10-07T19:17:48.779Z,48.45
2022-10-07T19:20:18.094Z,48.61
2022-10-07T19:22:46.409Z,48.59
2022-10-07T19:25:32.809Z,48.94
2022-10-07T19:28:01.109Z,49.24
2022-10-07T19:30:31.029Z,48.96
2022-10-07T19:32:59.292Z,48.85
2022-10-07T19:35:30.096Z,48.89
2022-10-07T19:37:58.510Z,49.00
2022-10-07T19:40:26.905Z,49.12
2022-10-07T19:42:55.082Z,49.35
2022-10-07T19:45:23.795Z,49.40
2022-10-07T19:47:53.818Z,49.40
2022-10-07T19:50:22.138Z,49.76
2022-10-07T19:52:53.293Z,49.55
2022-10-07T19:55:22.014Z,49.84
2022-10-07T19:57:54.602Z,49.82
2022-10-07T20:00:24.529Z,49.72
2022-10-07T20:02:56.897Z,49.93
2022-10-07T20:05:26.195Z,50.93
2022-10-07T20:07:54.745Z,50.51
2022-10-07T20:10:24.001Z,50.77
2022-10-07T20:12:52.875Z,51.15
2022-10-07T20:15:23.186Z,51.45
2022-10-07T20:17:51.487Z,51.91
2022-10-07T20:20:21.108Z,51.68
2022-10-07T20:22:49.805Z,52.25
2022-10-07T20:25:18.349Z,52.25
2022-10-07T20:27:46.703Z,51.98
2022-10-07T20:30:18.194Z,52.27
2022-10-07T20:32:46.869Z,51.97
2022-10-07T20:35:15.731Z,52.07
2022-10-07T20:37:45.686Z,51.96
2022-10-07T20:40:31.301Z,52.20
2022-10-07T20:43:00.861Z,52.21
2022-10-07T20:45:29.056Z,52.15
2022-10-07T20:47:59.542Z,52.20
2022-10-07T20:50:28.154Z,52.17
2022-10-07T20:52:57.661Z,52.21
2022-10-07T20:55:26.133Z,52.29
2022-10-07T20:57:54.605Z,52.17
2022-10-07T21:00:22.881Z,52.20
2022-10-07T21:02:51.438Z,52.24
2022-10-07T21:05:20.427Z,52.20
2022-10-07T21:07:53.776Z,52.30
2022-10-07T21:10:24.643Z,52.30
2022-10-07T21:12:52.886Z,52.22
2022-10-07T21:15:21.075Z,51.95
2022-10-07T21:17:49.545Z,51.96
2022-10-07T21:20:17.827Z,52.02
2022-10-07T21:22:46.378Z,52.14
2022-10-07T21:25:16.242Z,52.44
2022-10-07T21:27:45.855Z,52.68
2022-10-07T21:30:14.235Z,52.74
2022-10-07T21:32:42.732Z,52.38
2022-10-07T21:35:11.486Z,52.47
2022-10-07T21:37:39.706Z,52.77
2022-10-07T21:40:09.116Z,52.72
2022-10-07T21:42:37.282Z,52.72
2022-10-07T21:45:08.192Z,52.83
2022-10-07T21:47:36.577Z,52.97
2022-10-07T21:50:06.096Z,52.76
2022-10-07T21:52:34.308Z,52.70
2022-10-07T21:55:02.807Z,52.72
2022-10-07T21:57:30.969Z,52.62
2022-10-07T21:59:59.159Z,52.66
2022-10-07T22:02:29.383Z,52.77
2022-10-07T22:04:58.092Z,53.19
2022-10-07T22:07:43.816Z,53.16
2022-10-07T22:10:12.223Z,52.89
2022-10-07T22:12:41.122Z,52.81
2022-10-07T22:15:10.241Z,53.60
2022-10-07T22:17:40.051Z,53.39
2022-10-07T22:20:09.546Z,53.43
2022-10-07T22:22:37.728Z,53.33
2022-10-07T22:25:07.961Z,53.43
2022-10-07T22:27:36.135Z,53.33
2022-10-07T22:30:04.939Z,53.35
2022-10-07T22:32:33.590Z,53.15
2022-10-07T22:35:20.472Z,53.08
2022-10-07T22:37:48.884Z,53.20
2022-10-07T22:40:17.161Z,53.24
2022-10-07T22:42:46.872Z,53.07
2022-10-07T22:45:17.150Z,53.22
2022-10-07T22:47:45.517Z,53.16
2022-10-07T22:50:16.054Z,53.22
2022-10-07T22:52:46.282Z,53.32
2022-10-07T22:55:18.034Z,53.88
2022-10-07T22:57:46.429Z,53.67
2022-10-07T23:00:15.848Z,53.73
2022-10-07T23:02:44.567Z,53.62
2022-10-07T23:05:14.950Z,53.57
2022-10-07T23:07:43.103Z,53.58
2022-10-07T23:10:11.220Z,53.55
2022-10-07T23:12:39.707Z,53.60
2022-10-07T23:15:08.682Z,53.67
2022-10-07T23:17:36.868Z,53.45
2022-10-07T23:20:06.184Z,53.56
2022-10-07T23:22:35.681Z,53.57
2022-10-07T23:25:04.450Z,53.77
2022-10-07T23:27:32.965Z,53.77
2022-10-07T23:30:01.253Z,53.94
2022-10-07T23:32:29.537Z,53.89
2022-10-07T23:34:58.090Z,53.84
2022-10-07T23:37:26.396Z,54.09
2022-10-07T23:39:56.012Z,54.28
2022-10-07T23:42:24.517Z,54.31
2022-10-07T23:44:52.701Z,54.39
2022-10-07T23:47:22.920Z,54.29
2022-10-07T23:49:51.399Z,54.20
2022-10-07T23:52:19.581Z,54.31
2022-10-07T23:54:47.745Z,54.44
2022-10-07T23:57:17.664Z,54.02
2022-10-07T23:59:45.756Z,54.19
